Latest Weather Observations for Gold Coast Seaway

IDQ60901

Issued at 11:51 am EST Friday 18 October 2019 (issued every 10 minutes, with the page automatically refreshed every 10 minutes)

About weather observations | Map of Brisbane area stations | Latest observations for Brisbane area | Other Formats
Station Details ID: 040764 Name: GOLD COAST SEAWAY Lat: -27.94 Lon: 153.43 Height: 2.98 m
Data from the previous 72 hours. | See also: Recent months at Gold Coast Seaway
Date/Time
EST
Temp
°C
App
Temp
°C
Dew
Point
°C
Rel
Hum
%
Delta-T
°C
Wind Press
QNH
hPa
Press
MSL
hPa
Rain since
9am
mm
Dir  Spd
km/h
Gust
km/h
Spd
kts
Gust
kts
18/11:30am 24.9 24.9 19.7 73 3.4 SSE 19 22 10 12 1017.5 1017.5 0.0
18/11:00am 24.3 23.8 19.1 73 3.3 SSE 20 26 11 14 1017.6 1017.6 0.0
18/10:30am 24.0 23.2 19.3 75 3.0 SSE 22 28 12 15 1017.8 1017.8 0.0
18/10:00am 23.8 22.6 19.3 76 2.9 SSE 24 28 13 15 1017.8 1017.8 0.0
18/09:30am 24.2 22.9 19.9 77 2.8 SSE 26 30 14 16 1018.0 1018.0 0.0
18/09:00am 23.8 23.0 20.1 80 2.4 SSE 24 30 13 16 1017.9 1017.9 0.0
18/08:30am 23.2 22.8 20.2 83 1.9 SSE 22 28 12 15 1017.4 1017.4 0.0
18/08:00am 22.6 22.0 19.8 84 1.8 SSE 22 28 12 15 1017.4 1017.4 0.0
18/07:30am 21.6 20.4 19.3 87 1.5 SSE 24 28 13 15 1017.0 1017.0 0.0
18/07:00am 20.2 17.6 18.7 91 0.9 SSE 30 33 16 18 1016.7 1016.7 0.0
18/06:30am 20.5 17.7 19.0 91 0.9 SSE 32 39 17 21 1016.3 1016.3 0.0
18/06:00am 20.0 16.5 18.8 93 0.8 SSE 35 43 19 23 1015.4 1015.4 0.0
18/05:30am 19.7 15.5 19.0 96 0.4 SSE 39 48 21 26 1014.8 1014.8 0.0
18/05:00am 19.9 14.9 19.2 96 0.4 SSE 44 57 24 31 1013.9 1013.9 0.0
18/04:36am 20.1 17.3 19.1 94 0.6 SE 32 50 17 27 1013.3 1013.3 0.0
18/04:30am 20.1 17.9 18.8 92 0.8 SE 28 33 15 18 1013.3 1013.3 0.0
18/04:28am 19.8 17.3 18.1 90 1.1 SE 28 33 15 18 1013.4 1013.4 0.0
18/04:00am 18.7 21.1 18.0 96 0.4 NW 2 7 1 4 1012.7 1012.7 0.0
18/03:30am 19.4 21.0 19.1 98 0.2 N 9 11 5 6 1012.3 1012.3 0.0
18/03:00am 19.6 21.2 19.1 97 0.3 N 9 13 5 7 1012.1 1012.1 0.0
18/02:30am 19.8 22.0 19.1 96 0.4 N 6 13 3 7 1012.2 1012.2 0.0
18/02:00am 19.8 21.7 19.0 95 0.5 S 7 9 4 5 1012.1 1012.1 0.0
18/01:30am 20.6 20.7 19.1 91 0.9 WNW 17 20 9 11 1011.8 1011.8 0.0
18/01:00am 19.8 22.2 19.6 99 0.1 WNW 6 11 3 6 1012.2 1012.2 0.0
18/12:30am 19.9 22.1 19.7 99 0.1 NW 7 11 4 6 1012.8 1012.8 0.0
18/12:00am 20.4 21.4 20.2 99 0.1 NW 15 19 8 10 1012.9 1012.9 0.0
 
Date/Time
EST
Temp
°C
App
Temp
°C
Dew
Point
°C
Rel
Hum
%
Delta-T
°C
Wind Press
QNH
hPa
Press
MSL
hPa
Rain since
9am
mm
Dir  Spd
km/h
Gust
km/h
Spd
kts
Gust
kts
17/11:30pm 20.5 21.5 20.3 99 0.1 NNW 15 19 8 10 1013.1 1013.1 0.0
17/11:00pm 20.7 21.5 20.7 100 0.0 NNW 17 19 9 10 1013.3 1013.3 0.0
17/10:30pm 20.2 22.2 20.0 99 0.1 NNW 9 28 5 15 1013.4 1013.4 0.0
17/10:00pm 20.2 23.5 20.0 99 0.1 N 2 7 1 4 1012.8 1012.8 0.0
17/09:30pm 20.7 22.6 20.5 99 0.1 NNW 11 13 6 7 1012.8 1012.8 0.0
17/09:00pm 20.8 23.4 20.5 98 0.2 WNW 7 9 4 5 1012.7 1012.7 0.0
17/08:30pm 21.0 22.5 20.5 97 0.3 WSW 13 15 7 8 1012.6 1012.6 0.0
17/08:00pm 20.9 22.7 20.4 97 0.3 WSW 11 17 6 9 1012.7 1012.7 0.0
17/07:30pm 20.8 23.0 20.3 97 0.3 NW 9 11 5 6 1012.6 1012.6 0.0
17/07:00pm 20.6 22.0 20.3 98 0.2 WNW 13 15 7 8 1012.4 1012.4 0.0
17/06:30pm 20.7 21.8 20.5 99 0.1 NW 15 17 8 9 1011.8 1011.8 0.0
17/06:00pm 20.4 22.1 20.1 98 0.2 NNW 11 24 6 13 1011.3 1011.3 0.0
17/05:30pm 21.5 19.7 21.5 100 0.0 NE 33 41 18 22 1010.3 1010.3 0.0
17/05:12pm 21.6 19.9 21.4 99 0.1 NNE 32 50 17 27 1009.8 1009.8 0.0
17/05:06pm 21.0 20.0 19.7 92 0.8 WNW 24 50 13 27 1011.0 1011.0 0.0
17/05:03pm 22.4 22.6 21.4 94 0.7 W 22 50 12 27 1013.9 1013.9 0.0
17/05:00pm 23.7 25.0 21.6 88 1.4 WSW 17 28 9 15 1013.5 1013.5 0.0
17/04:57pm 24.0 26.0 21.5 86 1.7 SSW 13 28 7 15 1012.8 1012.8 0.0
17/04:41pm 22.5 21.4 21.0 91 1.0 N 28 37 15 20 1010.8 1010.8 0.0
17/04:30pm 22.6 20.5 20.9 90 1.1 N 33 39 18 21 1008.8 1008.8 0.0
17/04:00pm 22.9 19.7 21.0 89 1.2 N 39 52 21 28 1008.6 1008.6 0.0
17/03:30pm 23.4 20.9 20.9 86 1.6 N 35 43 19 23 1008.4 1008.4 0.0
17/03:00pm 24.3 21.1 21.0 82 2.2 N 39 48 21 26 1008.5 1008.5 0.0
17/02:30pm 24.7 22.4 21.2 81 2.3 N 35 44 19 24 1009.1 1009.1 0.0
17/02:00pm 24.7 21.8 20.8 79 2.6 NNE 37 44 20 24 1009.8 1009.8 0.0
17/01:30pm 25.0 22.5 20.9 78 2.7 NNE 35 44 19 24 1010.4 1010.4 0.0
17/01:00pm 25.3 23.0 21.2 78 2.7 N 35 46 19 25 1011.0 1011.0 0.0
17/12:30pm 25.2 23.0 21.5 80 2.5 N 35 43 19 23 1011.5 1011.5 0.0
17/12:00pm 25.6 23.3 21.3 77 2.8 NNE 35 43 19 23 1011.8 1011.8 0.0
17/11:30am 27.2 24.0 21.0 69 4.1 N 39 48 21 26 1012.3 1012.3 0.0
17/11:00am 26.4 24.1 21.2 73 3.4 N 35 46 19 25 1012.8 1012.8 0.0
17/10:30am 26.9 24.6 21.2 71 3.8 N 35 48 19 26 1013.2 1013.2 0.0
17/10:00am 26.1 23.6 20.9 73 3.4 N 35 46 19 25 1013.5 1013.5 0.0
17/09:30am 25.9 24.0 20.9 74 3.3 N 32 41 17 22 1014.0 1014.0 0.0
17/09:03am 24.8 22.7 20.5 77 2.8 N 32 50 17 27 1014.0 1014.0 0.0
17/09:00am 24.9 22.6 20.6 77 2.8 N 33 50 18 27 1014.1 1014.1 0.0
17/08:30am 24.7 23.1 20.8 79 2.6 NNW 30 39 16 21 1014.2 1014.2 0.0
17/08:00am 23.9 22.3 20.0 79 2.5 NNW 28 43 15 23 1014.0 1014.0 0.0
17/07:30am 22.2 20.8 19.6 85 1.7 NNW 26 39 14 21 1013.8 1013.8 0.0
17/07:00am 22.1 21.5 19.8 87 1.5 NNW 22 37 12 20 1013.6 1013.6 0.0
17/06:30am 21.6 21.0 19.7 89 1.2 NNW 22 35 12 19 1013.9 1013.9 0.0
17/06:00am 21.4 20.0 19.7 90 1.1 NNW 26 35 14 19 1013.7 1013.7 0.0
17/05:30am 21.0 19.9 19.5 91 1.0 N 24 33 13 18 1013.4 1013.4 0.0
17/05:00am 20.9 19.1 19.6 92 0.8 N 28 43 15 23 1013.4 1013.4 0.0
17/04:30am 20.7 19.7 19.7 94 0.6 N 24 32 13 17 1013.7 1013.7 0.0
17/04:00am 20.8 20.7 19.6 93 0.8 N 19 26 10 14 1013.6 1013.6 0.0
17/03:30am 20.8 21.5 19.6 93 0.8 NNW 15 22 8 12 1013.5 1013.5 0.0
17/03:00am 21.0 22.2 19.8 93 0.8 NW 13 19 7 10 1014.2 1014.2 0.0
17/02:30am 21.0 20.8 19.7 92 0.8 WNW 20 26 11 14 1014.5 1014.5 0.0
17/02:00am 21.4 21.4 20.2 93 0.8 NNW 20 37 11 20 1013.0 1013.0 0.0
17/01:30am 21.4 20.3 20.2 93 0.8 NNW 26 39 14 21 1013.1 1013.1 0.0
17/01:00am 21.6 19.7 20.2 92 0.9 NNW 30 43 16 23 1013.6 1013.6 0.0
17/12:49am 21.6 19.7 20.2 92 0.9 NNW 30 48 16 26 1013.6 1013.6 0.0
17/12:30am 21.7 21.4 20.3 92 0.9 NNW 22 35 12 19 1013.3 1013.3 0.0
17/12:00am 21.9 20.5 20.5 92 0.9 NNW 28 39 15 21 1013.7 1013.7 0.0
 
Date/Time
EST
Temp
°C
App
Temp
°C
Dew
Point
°C
Rel
Hum
%
Delta-T
°C
Wind Press
QNH
hPa
Press
MSL
hPa
Rain since
9am
mm
Dir  Spd
km/h
Gust
km/h
Spd
kts
Gust
kts
16/11:30pm 21.9 20.2 20.5 92 0.9 NNW 30 41 16 22 1013.7 1013.7 0.0
16/11:00pm 22.0 20.9 20.3 90 1.1 NNW 26 41 14 22 1013.9 1013.9 0.0
16/10:30pm 22.1 20.9 20.0 88 1.3 NNW 26 37 14 20 1013.7 1013.7 0.0
16/10:00pm 22.0 20.9 19.4 85 1.7 NNW 24 32 13 17 1013.9 1013.9 0.0
16/09:30pm 21.9 21.0 19.8 88 1.3 N 24 33 13 18 1014.0 1014.0 0.0
16/09:00pm 22.0 21.6 20.1 89 1.2 NNW 22 32 12 17 1014.1 1014.1 0.0
16/08:30pm 22.0 21.6 20.1 89 1.2 N 22 30 12 16 1013.9 1013.9 0.0
16/08:00pm 21.6 22.4 19.9 90 1.1 N 15 22 8 12 1013.6 1013.6 0.0
16/07:30pm 21.2 22.8 20.0 93 0.8 N 11 17 6 9 1013.6 1013.6 0.0
16/07:00pm 21.5 21.4 20.8 96 0.5 N 22 28 12 15 1013.4 1013.4 0.0
16/06:30pm 21.6 20.4 20.8 95 0.5 N 28 32 15 17 1013.2 1013.2 0.0
16/06:00pm 21.9 20.4 20.9 94 0.7 N 30 33 16 18 1013.2 1013.2 0.0
16/05:30pm 22.3 20.5 21.1 93 0.8 N 32 35 17 19 1012.9 1012.9 0.0
16/05:00pm 22.5 19.7 21.0 91 1.0 N 37 44 20 24 1012.6 1012.6 0.0
16/04:30pm 23.1 20.3 21.0 88 1.4 NNE 37 44 20 24 1012.5 1012.5 0.0
16/04:00pm 23.6 20.9 21.3 87 1.5 NNE 37 43 20 23 1012.4 1012.4 0.0
16/03:30pm 23.8 21.1 21.3 86 1.6 N 37 43 20 23 1012.3 1012.3 0.0
16/03:00pm 24.2 21.4 21.1 83 2.0 NNE 37 43 20 23 1012.2 1012.2 0.0
16/02:30pm 24.8 22.5 21.3 81 2.3 NNE 35 41 19 22 1012.4 1012.4 0.0
16/02:00pm 25.2 23.0 21.5 80 2.5 NNE 35 41 19 22 1012.7 1012.7 0.0
16/01:30pm 25.4 23.7 21.7 80 2.5 NNE 33 39 18 21 1012.8 1012.8 0.0
16/01:00pm 25.9 24.3 21.8 78 2.7 NNE 33 39 18 21 1012.9 1012.9 0.0
16/12:30pm 26.1 25.0 21.7 77 2.9 NNE 30 35 16 19 1013.3 1013.3 0.0
16/12:00pm 27.3 26.5 21.6 71 3.8 N 28 37 15 20 1013.8 1013.8 0.0
16/11:30am 27.3 26.9 21.6 71 3.8 N 26 33 14 18 1014.4 1014.4 0.0
16/11:00am 26.6 25.2 20.4 69 4.1 N 28 37 15 20 1014.8 1014.8 0.0
16/10:30am 26.4 26.3 21.4 74 3.3 N 24 33 13 18 1015.1 1015.1 0.0
16/10:00am 25.0 25.3 20.7 77 2.8 N 20 30 11 16 1015.7 1015.7 0.0
16/09:30am 25.0 25.7 20.5 76 2.9 NNW 17 24 9 13 1016.0 1016.0 0.0
16/09:00am 23.8 23.9 20.3 81 2.3 NNW 20 30 11 16 1016.4 1016.4 0.0
16/08:30am 22.9 23.5 21.0 89 1.2 NNW 19 28 10 15 1016.2 1016.2 0.0
16/08:00am 21.9 22.2 20.5 92 0.9 NW 19 26 10 14 1016.3 1016.3 0.0
16/07:30am 21.3 21.6 20.5 95 0.5 NNW 19 26 10 14 1016.1 1016.1 0.0
16/07:00am 20.6 22.0 20.4 99 0.1 NNW 13 19 7 10 1015.8 1015.8 0.0
16/06:30am 20.0 21.2 19.8 99 0.1 NW 13 17 7 9 1015.7 1015.7 0.0
16/06:00am 19.7 21.1 19.5 99 0.1 NW 11 13 6 7 1015.2 1015.2 0.0
16/05:30am 19.5 20.8 19.3 99 0.1 NW 11 15 6 8 1015.0 1015.0 0.0
16/05:00am 19.6 20.9 19.4 99 0.1 NW 11 15 6 8 1014.7 1014.7 0.0
16/04:30am 18.9 20.3 18.7 99 0.1 NNW 9 15 5 8 1014.4 1014.4 0.0
16/04:00am 18.1 19.5 17.8 98 0.2 NW 7 7 4 4 1014.6 1014.6 0.0
16/03:30am 18.8 20.1 18.5 98 0.2 NNW 9 11 5 6 1014.3 1014.3 0.0
16/03:00am 18.5 19.9 17.9 96 0.4 NNW 7 7 4 4 1014.1 1014.1 0.0
16/02:30am 19.2 20.9 18.5 96 0.4 NNW 7 9 4 5 1014.1 1014.1 0.0
16/02:00am 19.2 20.9 18.4 95 0.5 NW 7 9 4 5 1014.3 1014.3 0.0
16/01:30am 20.0 22.2 19.3 96 0.4 NW 6 7 3 4 1014.4 1014.4 0.0
16/01:00am 20.2 22.0 19.5 96 0.4 NNW 9 11 5 6 1014.5 1014.5 0.0
16/12:30am 20.0 21.4 19.5 97 0.3 NNW 11 15 6 8 1014.4 1014.4 0.0
16/12:00am 19.6 21.1 18.9 96 0.4 NNW 9 11 5 6 1014.5 1014.5 0.0
 
Date/Time
EST
Temp
°C
App
Temp
°C
Dew
Point
°C
Rel
Hum
%
Delta-T
°C
Wind Press
QNH
hPa
Press
MSL
hPa
Rain since
9am
mm
Dir  Spd
km/h
Gust
km/h
Spd
kts
Gust
kts
15/11:30pm 18.9 20.0 17.9 94 0.6 NW 9 9 5 5 1014.8 1014.8 0.0
15/11:00pm 19.5 21.2 18.5 94 0.6 NW 7 9 4 5 1014.7 1014.7 0.0
15/10:30pm 20.2 21.9 19.4 95 0.5 NW 9 9 5 5 1014.7 1014.7 0.0
15/10:00pm 20.6 22.5 19.8 95 0.5 NW 9 11 5 6 1014.5 1014.5 0.0
15/09:30pm 20.7 22.7 19.9 95 0.5 NNW 9 11 5 6 1014.5 1014.5 0.0
15/09:00pm 20.6 22.1 19.8 95 0.5 NNW 11 13 6 7 1014.1 1014.1 0.0
15/08:30pm 20.9 22.9 19.9 94 0.6 N 9 11 5 6 1014.2 1014.2 0.0
15/08:00pm 20.8 23.0 19.6 93 0.8 NNW 7 9 4 5 1014.3 1014.3 0.0
15/07:30pm 21.1 23.4 19.9 93 0.8 NNW 7 9 4 5 1013.8 1013.8 0.0
15/07:00pm 21.3 23.6 19.9 92 0.9 NNW 7 11 4 6 1013.4 1013.4 0.0
15/06:30pm 21.6 22.1 20.1 91 1.0 N 17 19 9 10 1013.1 1013.1 0.0
15/06:00pm 21.8 21.8 20.1 90 1.1 N 20 26 11 14 1012.7 1012.7 0.0
15/05:30pm 22.2 21.2 19.7 86 1.6 NNE 24 32 13 17 1012.3 1012.3 0.0
15/05:00pm 22.5 21.3 19.3 82 2.0 NNE 24 30 13 16 1012.1 1012.1 0.0
15/04:30pm 22.8 21.1 19.8 83 1.9 NNE 28 32 15 17 1011.9 1011.9 0.0
15/04:00pm 23.2 22.4 20.0 82 2.1 NNE 24 28 13 15 1011.9 1011.9 0.0
15/03:30pm 23.3 23.4 20.4 84 1.9 NNE 20 26 11 14 1011.9 1011.9 0.0
15/03:00pm 23.4 22.7 20.3 83 2.0 NNE 24 28 13 15 1012.0 1012.0 0.0
15/02:30pm 24.0 23.4 20.5 81 2.3 NNE 24 30 13 16 1011.9 1011.9 0.0
15/02:00pm 24.5 23.4 20.2 77 2.8 NNE 26 32 14 17 1012.0 1012.0 0.0
15/01:30pm 25.8 24.7 21.0 75 3.2 NNE 28 32 15 17 1012.1 1012.1 0.0
15/01:00pm 25.0 24.2 20.9 78 2.7 NNE 26 30 14 16 1012.4 1012.4 0.0
15/12:30pm 25.3 24.2 20.3 74 3.3 NNE 26 32 14 17 1012.8 1012.8 0.0
15/12:00pm 24.9 23.1 19.5 72 3.5 N 28 37 15 20 1013.0 1013.0 0.0

Latest Capital City Observations: Canberra | Sydney | Melbourne | Brisbane | Adelaide | Perth | Hobart | Darwin

Other formats

Comma delimited format used in spreadsheet applications
http://www.bom.gov.au/fwo/IDQ60901/IDQ60901.94580.axf

JavaScript Object Notation format (JSON) in row-major order
http://www.bom.gov.au/fwo/IDQ60901/IDQ60901.94580.json

Data quality

Most of these data are generated automatically and are frequently updated. Quality checks on data are not normally performed. It is possible for incorrect values to appear. Refer to information at About Latest Weather Observations and please check the disclaimer before using these data.